Regional Weather Synopsis
Issued by NWS Denver/Boulder, CO

Home | Current Version | Previous Version | Text Only | Print | Product List | Glossary On
Versions: 1 2 3 4 5 6 7 8 9 10 11 12 13 14 15 16 17 18 19 20 21 22 23 24 25 26 27 28 29 30 31 32 33 34 35 36 37 38 39 40 41 42 43 44 45 46 47 48 49 50
000
NZUS99 KBOU 221607
SYNBOU

Hot-Air Balloon Forecast for Colorado
National Weather Service Denver/Boulder, Colorado
1005 MDT Monday, July 22, 2019


* * * * * Northeast Colorado * * * * *

METAR KFNL 221556Z AUTO 00000KT 10SM BKN014 21/16 A3038 RMK AO2 SLP232
       T02060156
METAR KFNL 221456Z AUTO 07003KT 10SM OVC010 19/16 A3039 RMK AO2 SLP237
       T01890156 50005
METAR KFNL 221356Z AUTO 04003KT 10SM OVC010 18/16 A3039 RMK AO2 CIG
       008V013 SLP236 T01830156

METAR KGXY 221556Z AUTO 11008KT 10SM OVC020 22/17 A3037 RMK AO2 SLP244
       T02170167
SPECI KGXY 221508Z AUTO 14008KT 10SM BKN016 OVC025 21/16 A3037 RMK
       AO2
METAR KGXY 221456Z AUTO 15009KT 10SM BKN014 OVC025 21/16 A3037 RMK AO2
       SLP248 T02060161 50004

METAR KLMO 221555Z AUTO 00000KT 7SM SCT016 OVC027 23/16 A3039 RMK AO2
       T02260164
METAR KLMO 221535Z AUTO 00000KT 7SM OVC018 21/16 A3039 RMK AO2
       T02140157
METAR KLMO 221515Z AUTO 02003KT 7SM BKN018 OVC035 22/16 A3039 RMK AO2
       T02150159

METAR KBDU 221548Z AUTO 07003KT 10SM BKN014 OVC031 20/16 A3039 RMK
       AO2
METAR KBDU 221530Z AUTO 01003KT 10SM BKN012 OVC031 19/17 A3038 RMK
       AO2
METAR KBDU 221512Z AUTO 00000KT 10SM BKN012 OVC031 18/16 A3039 RMK
       AO2

METAR KEIK 221600Z AUTO 34003KT 10SM BKN014 20/17 A3043 RMK AO2
       T02040165
METAR KEIK 221542Z AUTO 00000KT 10SM BKN012 20/16 A3043 RMK AO2
       T01970160
METAR KEIK 221518Z AUTO 00000KT 10SM BKN010 BKN034 19/17 A3043 RMK AO2
       T01910166

KBJC 221409Z 2214/2312 33004KT P6SM SCT003 BKN010 BKN030
     FM221500 34007KT P6SM SCT007 BKN015 BKN040
     FM221600 06006KT P6SM BKN040 BKN100
      TEMPO 2216/2218 BKN030
     FM222200 12012KT P6SM SCT050 BKN100
      TEMPO 2222/2301 VRB20G30KT 5SM TSRA BKN050CB
     FM230400 24006KT P6SM SCT050 BKN100
     FM230700 33006KT P6SM FEW100 SCT220
METAR KBJC 221550Z 06006KT 8SM SCT006 BKN011 21/16 A3041 RMK VIS LWR
       W
METAR KBJC 221450Z 00000KT 6SM BKN006 19/17 A3041 RMK VIS LWR W
METAR KBJC 221350Z 00000KT 4SM BKN003 BKN030 17/16 A3043

KDEN 221422Z 2214/2318 19005KT P6SM FEW015 SCT030
     FM221600 16008KT P6SM SCT040 BKN100
      TEMPO 2216/2218 BKN040 BKN100
     FM222200 15012G20KT P6SM SCT050 BKN080 PROB30 2223/2302
      VRB20G30KT 5SM TSRA BKN050CB
     FM230400 15008KT P6SM SCT050 BKN100
     FM230700 18009KT P6SM FEW100 SCT220
     FM231700 09007KT P6SM BKN120
METAR KDEN 221553Z 00000KT 10SM SCT035 BKN100 22/13 A3038 RMK AO2 SLP214
       T02170133
METAR KDEN 221453Z VRB03KT 10SM FEW015 SCT030 SCT100 22/13 A3039 RMK AO2
       SLP215 T02170133 50007
SPECI KDEN 221428Z 00000KT 10SM FEW015 SCT030 SCT090 21/13 A3039 RMK AO2
       T02110133

METAR KFTG 221547Z 15011G15KT 10SM BKN030 24/15 A3041
METAR KFTG 221450Z 17007KT 10SM BKN050 22/15 A3041
METAR KFTG 221347Z 17006KT 10SM BKN024 20/14 A3042

KBKF 220900Z 2209/2315 18009KT 9999 SCT015 BKN020 BKN100
      QNH3034INS
      BECMG 2212/2213 16009KT 9999 SCT015 BKN030 QNH3036INS
      BECMG 2216/2217 VRB06KT 9999 FEW025 SCT070 QNH3039INS
      BECMG 2221/2222 14012KT 9999 VCTS SCT050CB BKN090 QNH3030INS
      TEMPO 2223/2303 VRB20G35KT 8000 -TSRA BKN050CB
      BECMG 2303/2304 19009KT 9999 NSW SCT035 BKN060 QNH3035INS
      BECMG 2312/2313 VRB06KT 9999 SCT100 QNH3029INS TX30/2223Z
      TN15/2212Z
METAR KBKF 221558Z 18005KT 10SM FEW035 FEW090 23/12 A3040 RMK AO2A
        SLP221 T02270123
METAR KBKF 221458Z 00000KT 10SM FEW025 FEW090 21/13 A3041 RMK AO2A
       SLP230 T02110125 50004
METAR KBKF 221358Z 00000KT 10SM SCT025 SCT090 19/13 A3041 RMK AO2A
       SLP234 T01900129

KAPA 221139Z 2212/2312 VRB04KT P6SM FEW020 SCT100
     FM221600 16009KT P6SM BKN040 BKN100
     FM222200 15012G20KT P6SM SCT050 BKN100 PROB30 2223/2302
      VRB20G30KT 5SM TSRA BKN050CB
     FM230400 16008KT P6SM SCT050 BKN100
     FM230700 18009KT P6SM FEW100 SCT220
METAR KAPA 221553Z 00000KT 10SM FEW035 FEW075 22/13 A3040 RMK AO2 SLP235
       T02220128
METAR KAPA 221453Z 14003KT 10SM FEW080 FEW220 20/13 A3041 RMK AO2 SLP238
       T02000128 50005
METAR KAPA 221353Z 12004KT 10SM FEW080 FEW220 18/14 A3042 RMK AO2 SLP244
       T01780139

METAR KMNH 221548Z AUTO 17017G20KT 10SM CLR 16/12 A3050 RMK AO2
METAR KMNH 221530Z AUTO 17015KT 10SM CLR 16/11 A3050 RMK AO2
METAR KMNH 221506Z AUTO 17017G20KT 10SM CLR 16/12 A3050 RMK AO2


METAR KSTK 221600Z AUTO 16007KT 10SM BKN010 22/17 A3036 RMK AO2
METAR KSTK 221545Z AUTO 15006KT 10SM OVC010 21/17 A3037 RMK AO2
METAR KSTK 221515Z AUTO 13007KT 10SM OVC008 19/17 A3037 RMK AO2

SPECI KAKO 221601Z AUTO 13009G17KT 10SM BKN024 BKN037 OVC044 21/16 A3039
       RMK AO2 T02110161
METAR KAKO 221553Z AUTO 13010KT 10SM SCT024 OVC043 21/16 A3039 RMK AO2
       SLP242 T02110156
SPECI KAKO 221505Z AUTO 13009KT 10SM SCT015 BKN041 20/16 A3040 RMK AO2
       T02000161

METAR KLIC 221555Z AUTO 16013G18KT 10SM BKN012 BKN025 OVC038 19/16 A3043
       RMK AO2 SLP243 T01890161
METAR KLIC 221455Z AUTO 17010KT 6SM BR SCT008 SCT012 OVC019 17/16 A3043
       RMK AO2 SLP249 T01670161 50010
SPECI KLIC 221415Z AUTO 16009KT 10SM BKN008 OVC019 17/17 A3043 RMK AO2
       CIG 007V012 T01720167

METAR KHEQ 221550Z AUTO 10008KT 10SM OVC013 20/14 A3039 RMK AO2
METAR KHEQ 221530Z AUTO 12008KT 10SM OVC011 19/14 A3039 RMK AO2
METAR KHEQ 221510Z AUTO 12007KT 10SM OVC011 18/14 A3039 RMK AO2

METAR K2V6 221554Z AUTO 11007KT 10SM OVC007 16/06 A3039 RMK AO2
METAR K2V6 221534Z AUTO 10007KT 10SM OVC007 16/06 A3039 RMK AO2
METAR K2V6 221514Z AUTO 09008KT 10SM OVC005 16/07 A3039 RMK AO2

METAR K2V5 221555Z AUTO 10009KT 10SM OVC013 19/14 A3038 RMK AO2
METAR K2V5 221535Z AUTO 10007KT 10SM OVC011 18/14 A3038 RMK AO2
METAR K2V5 221515Z AUTO 09008KT 10SM BKN011 OVC017 18/13 A3039 RMK
       AO2

METAR KITR 221553Z AUTO 13005KT 7SM SCT006 BKN015 OVC020 19/17 A3040 RMK
       AO2 SLP251 T01890167
SPECI KITR 221535Z AUTO 12005KT 5SM BR BKN006 OVC013 18/17 A3040 RMK AO2
       CIG 004V011 T01830167
SPECI KITR 221501Z AUTO 09006KT 5SM BR OVC004 18/17 A3040 RMK AO2 CIG
       002V007 T01780167

Sunrise/Sunset for 07/22/2019
Fort Collins - 05:48:19 MDT / 20:25:11 MDT
Denver       - 05:50:09 MDT / 20:22:30 MDT
Sterling     - 05:40:38 MDT / 20:18:02 MDT

Denver/Boulder (KFTG) 07/22/19 15:56 UTC
Radar VAD winds      Height      Dir/Spd(kt)
                  17000 FT MSL...351/024
                  16800 FT MSL...354/024
                  16000 FT MSL...002/023
                  15000 FT MSL...008/021
                  14600 FT MSL...012/020
                  14000 FT MSL...022/017
                  13000 FT MSL...028/014
                  12700 FT MSL...346/005
                  12000 FT MSL...218/009
                  11200 FT MSL...219/012
                  11000 FT MSL...217/012
                  10000 FT MSL...212/013
                  10000 FT MSL...207/012
                   9000 FT MSL...194/011
                   8900 FT MSL...193/011
                   8100 FT MSL...177/011
                   8000 FT MSL...175/011
                   7300 FT MSL...166/011
                   7000 FT MSL...171/012
                   6600 FT MSL...170/010
                   6200 FT MSL...180/013
                   6000 FT MSL...171/011
                   5900 FT MSL...178/013

Denver/Boulder Aviation Discussion
Issued at 0952 UTC Monday, July 22, 2019

.AVIATION...(For the 06Z TAFS through 06Z Monday night)
Issued at 340 AM MDT Mon Jul 22 2019
The lower clouds have pushed in over the northeastern plains, as
well as along the foothills and western urban corridor. Do not
think the stratus will move too much further east to move in near
DEN at this point. Storms will form over and near the higher
terrain early afternoon, then push east-southeast over the urban
corridor, could impact the terminals by late in the afternoon.
Very heavy rain and gusty outflow winds will be the main issues
with the thunderstorms.


* * * * * Southeast Colorado * * * * *

METAR K4BM 221554Z AUTO 00000KT 10SM CLR 12/06 A3080 RMK AO2 LTG DSNT
       NW
METAR K4BM 221530Z AUTO 23003KT 10SM CLR 12/04 A3079 RMK AO2 LTG DSNT
       NW
METAR K4BM 221512Z AUTO 00000KT 10SM CLR 12/02 A3079 RMK AO2 LTG DSNT
       NW

METAR KAFF 221558Z 18012KT 10SM BKN014 OVC019 16/13 A3047 RMK AO2A
        SLP257 T01570130
METAR KAFF 221458Z 17012KT 10SM FEW005 BKN014 16/13 A3047 RMK AO2A
       SLP257 T01630128 52008

KCOS 221449Z 2215/2312 14010KT P6SM BKN010
     FM221800 16008KT P6SM SCT030 SCT200
     FM222100 17014KT P6SM VCTS SCT050CB BKN150
     FM230200 14010KT P6SM VCSH BKN050 BKN100
     FM230600 12009KT P6SM SCT050 SCT100
METAR KCOS 221554Z 17009KT 10SM BKN018 17/13 A3049 RMK AO2 SLP262
       T01720128
METAR KCOS 221454Z 14010KT 10SM BKN014 16/13 A3049 RMK AO2 SLP263
       T01610133 51013
SPECI KCOS 221415Z 15013KT 10SM BKN010 16/13 A3049 RMK AO2 T01560128

METAR KABH 221556Z AUTO 20011KT A3046 RMK AO2 SLPNO $
METAR KABH 221456Z AUTO 17010KT A3046 RMK AO2 SLPNO P0001 60001 51003
       $
METAR KABH 221356Z AUTO 16010KT A3046 RMK AO2 SLPNO $

METAR KFLY 221555Z AUTO 19010G20KT 140V210 10SM BKN014 OVC022 16/12
       A3052 RMK AO2 T01590124
METAR KFLY 221535Z AUTO 17014G19KT 130V200 10SM SCT009 OVC016 16/13
       A3052 RMK AO2 T01590129
METAR KFLY 221515Z AUTO 15010G16KT 130V200 10SM BKN007 OVC016 15/13
       A3052 RMK AO2 T01500130

KFCS 221507Z 2215/2319 VRB06KT 9999 BKN013 QNH3038INS
     BECMG 2215/2216 VRB06KT 9999 SCT015 SCT200 QNH3039INS
     BECMG 2218/2219 18009KT 9999 SCT040 QNH3040INS
     TEMPO 2221/2224 VRB20G30KT 8000 -TSRA BKN040CB
     BECMG 2304/2305 18009KT 9999 BKN015 OVC035 QNH3041INS
     BECMG 2308/2309 VRB06KT 8000 BR OVC040 QNH3043INS
     BECMG 2315/2316 16012KT 9999 NSW OVC060 QNH3040INS
     BECMG 2317/2318 16012KT 9999 VCTS OVC060CB QNH3037INS TX26/2223Z
     TN15/2215Z
METAR KFCS 221558Z AUTO 19009KT 10SM FEW015 OVC024 18/13 A3045 RMK AO2
       SLP275 T01790132 $
SPECI KFCS 221543Z AUTO 17008KT 10SM FEW008 OVC021 17/14 A3045 RMK
        AO2 SLP280 $
SPECI KFCS 221528Z AUTO 17008KT 10SM SCT008 OVC018 17/14 A3045 RMK AO2
       SLP280 $

KPUB 221300Z 2213/2312 12005KT P6SM SCT010 SCT150
      TEMPO 2213/2215 BKN010
     FM221600 13008KT P6SM SCT050 SCT200
     FM222100 10014KT P6SM SCT050 BKN150
     FM222300 15012KT P6SM VCTS SCT050CB BKN100
     FM230300 08008KT P6SM VCSH BKN050 BKN100
     FM230700 VRB06KT P6SM SCT050 SCT120
METAR KPUB 221553Z 00000KT 10SM CLR 22/16 A3039 RMK AO2 SLP231
       T02170156
METAR KPUB 221453Z 17004KT 10SM FEW015 19/17 A3040 RMK AO2 SLP235
       T01940167 50010
SPECI KPUB 221401Z 11005KT 10SM FEW013 19/17 A3040 RMK AO2 T01890167


METAR KTAD 221554Z AUTO 08005KT 10SM CLR 22/14 A3043 RMK AO2 SLP234
       T02170139
METAR KTAD 221454Z AUTO 00000KT 10SM CLR 19/13 A3045 RMK AO2 SLP241
       T01890133 51002
METAR KTAD 221354Z AUTO 00000KT 10SM CLR 17/14 A3045 RMK AO2 SLP245
       T01720144

METAR KLHX 221553Z AUTO 11008KT 10SM BKN012 BKN019 OVC026 21/17 A3038
       RMK AO2 SLP233 T02110172 $
SPECI KLHX 221500Z AUTO 12009KT 10SM SCT005 BKN012 OVC065 20/17 A3039
       RMK AO2 T02000172 $
METAR KLHX 221453Z AUTO 10006KT 10SM FEW005 BKN017 OVC065 20/18 A3039
       RMK AO2 SLP234 T02000178 50008 $

METAR KLAA 221553Z AUTO 10SM 22/16 A3035 RMK AO2 SLP232 T02220161 $
SPECI KLAA 221500Z AUTO 14004KT 10SM FEW027 BKN047 OVC070 21/16 A3036
       RMK AO2 T02060161 $
METAR KLAA 221453Z AUTO 10SM BKN027 BKN070 OVC090 21/17 A3037 RMK AO2
       SLP240 T02060167 53005 $

METAR KSPD 221556Z AUTO VRB04KT 21/15 A3038 RMK AO1 SLP229 T02110150
METAR KSPD 221456Z AUTO 23004KT 18/16 A3039 RMK AO1 SLP236 T01830161
       50007
METAR KSPD 221356Z AUTO 19006KT 17/16 A3040 RMK AO1 SLP237 T01720161

Sunrise/Sunset for 07/22/2019
Burlington - 05:40:32 MDT / 20:10:36 MDT
Pueblo     - 05:52:40 MDT / 20:17:15 MDT
Lamar      - 05:45:07 MDT / 20:08:46 MDT

Pueblo (KPUX) 07/22/19 16:01 UTC
Radar VAD winds      Height      Dir/Spd(kt)
                  18000 FT MSL...343/027
                  17000 FT MSL...352/026
                  16600 FT MSL...355/024
                  16000 FT MSL...358/021
                  15000 FT MSL...011/012
                  14300 FT MSL...016/009
                  14000 FT MSL...019/007
                  13000 FT MSL...005/006
                  12000 FT MSL...299/006
                  11000 FT MSL...230/013
                  10900 FT MSL...232/011
                  10000 FT MSL...222/013
                   9700 FT MSL...217/011
                   9000 FT MSL...195/009
                   8700 FT MSL...173/011
                   8000 FT MSL...171/010
                   7800 FT MSL...165/010
                   7100 FT MSL...171/011
                   7000 FT MSL...172/012
                   6400 FT MSL...169/010
                   6000 FT MSL...175/010
                   5900 FT MSL...177/011
                   5700 FT MSL...177/011

Pueblo Aviation Discussion
Issued at 1034 UTC Monday, July 22, 2019

.AVIATION...(For the 12Z TAFS through 12Z Tuesday morning)
Issued at 345 AM MDT Mon Jul 22 2019
Convection continues to weaken and shift eastward across the plains
early this morning, with VFR conditions expected at all taf sites
this morning into mid-afternoon. Thunderstorms will again develop
over the higher terrain beginning 18z-20z, spreading across interior
valleys including KALS after 20z.  Still enough of a risk of a late
afternoon/evening tsra to include a vcts mention at both KCOS and
KPUB as well, though chance for storms looks lower than the past 2
days at both sites as more nly steering flow will tend to keep
activity closer to the mountains. Again mainly a heavy rain/gusty
wind threat with most storms, though the strongest cells could
produce some marginally severe hail. Convection then fades away 03z-
05z with clearing skies and VFR conditions all terminals
overnight.


* * * * * Northwest Colorado * * * * *

METAR KCAG 221553Z AUTO 08009G14KT 10SM CLR 27/11 A3031 RMK AO2 SLP183
       T02720106
METAR KCAG 221453Z AUTO 09010KT 10SM CLR 23/10 A3032 RMK AO2 SLP185
       T02330100 50005
METAR KCAG 221353Z AUTO 08006KT 10SM CLR 21/09 A3032 RMK AO2 SLP177
       T02110094

METAR KHDN 221556Z AUTO 08011KT 10SM CLR 24/11 A3036 RMK AO2 SLP185
       T02390106
METAR KHDN 221456Z AUTO 09016KT 10SM CLR 22/11 A3036 RMK AO2 SLP185
       T02170106 51003
METAR KHDN 221356Z AUTO 09016KT 10SM CLR 19/09 A3036 RMK AO2 SLP183
       T01890094

METAR KSBS 221555Z AUTO 00000KT 10SM CLR 21/11 A3038 RMK AO1
       T02120114
METAR KSBS 221535Z AUTO 00000KT 10SM CLR 20/10 A3038 RMK AO1
       T02010103
METAR KSBS 221515Z AUTO 00000KT 10SM CLR 19/10 A3039 RMK AO1
       T01880102


METAR K33V 221535Z AUTO 00000KT 10SM CLR 17/07 A3052 RMK AO1
METAR K33V 221515Z AUTO 00000KT 10SM CLR 16/08 A3052 RMK AO1
METAR K33V 221455Z AUTO 00000KT 10SM CLR 15/07 A3052 RMK AO1

METAR KEEO 221553Z AUTO 23003KT 10SM CLR 23/09 A3032 RMK AO2 SLP172
       T02330094
METAR KEEO 221453Z AUTO 00000KT 10SM CLR 21/07 A3033 RMK AO2 SLP175
       T02060072 51007
METAR KEEO 221353Z AUTO 08003KT 10SM CLR 17/07 A3032 RMK AO2 SLP170
        T01720072

METAR K20V 221548Z AUTO 00000KT 10SM CLR 20/10 A3047 RMK AO2
METAR K20V 221530Z AUTO 28003KT 10SM CLR 18/09 A3047 RMK AO2
METAR K20V 221506Z AUTO 00000KT 10SM CLR 17/08 A3048 RMK AO2

METAR KGNB 221540Z AUTO 00000KT 10SM CLR 17/09 A3052 RMK AO2
       T01730093
METAR KGNB 221520Z AUTO 00000KT 10SM CLR 16/10 A3053 RMK AO2
       T01610095
METAR KGNB 221500Z AUTO 00000KT 10SM CLR 15/09 A3053 RMK AO2
       T01500094

METAR K0CO 221612Z AUTO 13007G15KT CLR 10/03 A3085 RMK AO2 PWINO
METAR K0CO 221554Z AUTO 12010G14KT CLR 10/03 A3084 RMK AO2 PWINO
METAR K0CO 221530Z AUTO 12009KT 081V151 CLR 10/02 A3084 RMK AO2
       PWINO

KGJT 221124Z 2212/2312 09012KT P6SM SKC
     FM221400 14012KT P6SM SKC
     FM222000 25009KT P6SM FEW150 FEW250
     FM230300 11008KT P6SM SCT250
     FM230800 13009KT P6SM FEW120 FEW250
METAR KGJT 221553Z 13013KT 10SM CLR 29/08 A3020 RMK AO2 SLP147
       T02890083
METAR KGJT 221453Z 12014KT 10SM CLR 28/07 A3020 RMK AO2 SLP145 T02780072
       51012
METAR KGJT 221353Z 10010KT 10SM CLR 26/07 A3019 RMK AO2 SLP138
       T02610067

KRIL 221124Z 2212/2312 09003KT P6SM SKC
     FM222000 31006KT P6SM FEW120 SCT250
     FM230200 15007KT P6SM FEW120 SCT250
     FM230600 VRB04KT P6SM FEW120 FEW250
METAR KRIL 221553Z AUTO 08005KT 10SM CLR 27/09 A3027 RMK AO2 SLP169
       T02720094
METAR KRIL 221453Z AUTO 04006KT 10SM CLR 23/09 A3028 RMK AO2 SLP169
       T02330094 51007
METAR KRIL 221353Z AUTO 00000KT 10SM CLR 20/08 A3027 RMK AO2 SLP168
        T02000078

METAR K5SM 221546Z AUTO 16004KT 10SM CLR 16/03 A3072 RMK AO2
METAR K5SM 221529Z AUTO 15004KT 10SM CLR 16/02 A3071 RMK AO2
METAR K5SM 221506Z AUTO 10003KT 10SM CLR 15/04 A3071 RMK AO2

KEGE 221124Z 2212/2312 17003KT P6SM FEW250
     FM222100 26007KT P6SM SCT250
     FM230300 10007KT P6SM FEW100 SCT150
     FM230600 13005KT P6SM FEW090 SCT200
METAR KEGE 221556Z 18003KT 10SM CLR 22/08 A3041 RMK AO2 SLP228
       T02170083
METAR KEGE 221456Z 00000KT 10SM CLR 18/07 A3042 RMK AO2 SLP233 T01830072
       50002
METAR KEGE 221356Z 00000KT 10SM CLR 16/07 A3043 RMK AO2 SLP233
       T01610072

KASE 221124Z 2212/2312 14004KT P6SM SKC
     FM221900 30007KT P6SM FEW090 SCT100
     FM222100 31009KT P6SM VCSH BKN100
     FM230300 15008KT P6SM FEW080 SCT180
METAR KASE 221553Z 34005KT 10SM CLR 22/07 A3044 RMK AO2 SLP176
       T02220072
METAR KASE 221453Z 36004KT 10SM CLR 19/07 A3045 RMK AO2 SLP182 T01890072
       51004
METAR KASE 221353Z 01004KT 10SM CLR 17/06 A3045 RMK AO2 SLP177
       T01670061

METAR KCCU 221552Z AUTO 06005KT 10SM SCT037 18/05 A3080 RMK AO2
METAR KCCU 221534Z AUTO 07006KT 10SM CLR 17/05 A3080 RMK AO2
METAR KCCU 221512Z AUTO 11007KT 10SM CLR 16/04 A3080 RMK AO2

METAR KLXV 221553Z AUTO 19007KT 10SM CLR 14/08 A3065 RMK AO2 SLP214
       T01390078
METAR KLXV 221453Z AUTO 00000KT 10SM CLR 12/07 A3065 RMK AO2 SLP214
       T01220072 50001
METAR KLXV 221353Z AUTO 00000KT 10SM CLR 09/07 A3065 RMK AO2 SLP220
       T00890072

Sunrise/Sunset for 07/22/2019
Rangely           - 06:04:27 MDT / 20:38:44 MDT
Grand Junction    - 06:06:14 MDT / 20:35:08 MDT
Steamboat Springs - 05:55:32 MDT / 20:31:59 MDT

Grand Junction (KGJX) 07/22/19 15:54 UTC
Radar VAD winds      Height      Dir/Spd(kt)
                  18000 FT MSL...338/012
                  18000 FT MSL...330/013
                  17000 FT MSL...330/010
                  16300 FT MSL...346/008
                  16000 FT MSL...360/008
                  15000 FT MSL...014/009
                  14600 FT MSL...013/008
                  14000 FT MSL...009/007
                  13000 FT MSL...162/006
                  12900 FT MSL...163/006
                  12000 FT MSL...220/005
                  11100 FT MSL...237/011
                  11000 FT MSL...164/008
                  11000 FT MSL...223/010
                  10400 FT MSL...196/009

Grand Junction Aviation Discussion
Issued at 1134 UTC Monday, July 22, 2019

.AVIATION...(For the 12Z TAFS through 12Z Tuesday morning)
Issued at 532 AM MDT Mon Jul 22 2019
VFR conditions will be in place this morning with light to
moderate terrain driven winds. There will be a slight uptick in
mountain thunderstorm development today but limited coverage
keeps them out of the TAF forecasts attm. Gusty outflow winds will
be the threat with storms which could cause a quick change in wind
direction and speed.


* * * * * Southwest Colorado * * * * *

METAR KAJZ 221555Z AUTO 00000KT 10SM CLR 28/07 A3026 RMK AO2
       T02760069
METAR KAJZ 221535Z AUTO 00000KT 10SM CLR 27/07 A3027 RMK AO2
       T02670071
METAR KAJZ 221515Z AUTO 00000KT 10SM CLR 27/06 A3026 RMK AO2
       T02650064

KMTJ 221124Z 2212/2312 18005KT P6SM SCT120
     FM221600 14006KT P6SM SCT120
     FM222100 32007KT P6SM FEW120 SCT200
     FM230100 20008KT P6SM FEW120 SCT250
     FM230300 12009KT P6SM FEW100 SCT250
METAR KMTJ 221553Z AUTO 00000KT 10SM CLR 27/08 A3031 RMK AO2 SLP167
       T02720083
METAR KMTJ 221453Z AUTO 10SM CLR 26/08 A3030 RMK AO2 SLP166 T02560083
       51007
METAR KMTJ 221353Z AUTO 14006G21KT 10SM CLR 22/07 A3030 RMK AO2 SLP161
       T02220072

METAR KGUC 221556Z AUTO 35006KT 10SM CLR 20/09 A3048 RMK AO2 SLP225
       T02000089
METAR KGUC 221456Z AUTO 02003KT 10SM CLR 18/08 A3050 RMK AO2 SLP234
       T01780078 50001
METAR KGUC 221356Z AUTO 07006KT 10SM CLR 16/07 A3050 RMK AO2 SLP227
       T01560072

METAR K7BM 221542Z AUTO 10005KT 10SM CLR 16/07 A3068 RMK AO2
METAR K7BM 221524Z AUTO 11004KT 10SM CLR 16/07 A3067 RMK AO2
METAR K7BM 221500Z AUTO 11005KT 10SM CLR 15/08 A3068 RMK AO2

METAR KAEJ 221555Z AUTO 00000KT 10SM CLR 19/07 A3055 RMK AO2
       T01870070
METAR KAEJ 221535Z AUTO 00000KT 10SM CLR 18/08 A3055 RMK AO2
       T01780079
METAR KAEJ 221515Z AUTO 00000KT 10SM CLR 16/08 A3056 RMK AO2
       T01630081

METAR KANK 221615Z AUTO 00000KT 10SM CLR 19/10 A3060 RMK AO1
       T01900099
METAR KANK 221555Z AUTO 00000KT 10SM CLR 18/10 A3061 RMK AO1 T01830100
METAR KANK 221535Z AUTO 00000KT 10SM CLR 17/11 A3061 RMK AO1
       T01700105


METAR KAIB 221555Z AUTO 36003KT 10SM CLR 26/M02 A3034 RMK AO2
METAR KAIB 221535Z AUTO 00000KT 10SM CLR 25/M01 A3034 RMK AO2
METAR KAIB 221455Z AUTO 00000KT 10SM CLR 23/00 A3033 RMK AO2

KTEX 221124Z 2212/2312 10003KT P6SM SCT120
     FM222000 29006KT P6SM VCSH SCT070 BKN100
     FM230100 17006KT P6SM FEW060 SCT100
     FM230600 12004KT P6SM SCT250
METAR KTEX 221555Z AUTO 00000KT 10SM CLR 22/04 A3057 RMK AO2
METAR KTEX 221535Z AUTO 00000KT 10SM CLR 21/05 A3057 RMK AO2
METAR KTEX 221515Z AUTO 00000KT 10SM CLR 21/05 A3057 RMK AO2

METAR K04V 221554Z AUTO 00000KT 10SM CLR 20/08 A3052 RMK AO2
METAR K04V 221536Z AUTO 00000KT 10SM CLR 20/08 A3052 RMK AO2
METAR K04V 221518Z AUTO 00000KT 10SM CLR 18/07 A3053 RMK AO2

METAR KCEZ 221553Z AUTO 10SM CLR 27/09 A3031 RMK AO2 SLP180
       T02670089
METAR KCEZ 221453Z AUTO 16009G21KT 10SM CLR 27/09 A3031 RMK AO2 PK WND
       15028/1414 SLP169 T02670089 53010
METAR KCEZ 221353Z AUTO 13012G22KT 10SM CLR 26/09 A3029 RMK AO2 SLP153
       T02560089

KDRO 221124Z 2212/2312 VRB04KT P6SM FEW100 FEW250
     FM221600 08007KT P6SM SCT250
     FM222100 11007KT P6SM VCSH BKN100
     FM230500 09006KT P6SM SCT050 BKN100
     FM231100 VRB04KT P6SM FEW060 SCT200
METAR KDRO 221553Z AUTO 12005G18KT 10SM CLR 24/08 A3040 RMK AO2 SLP196
       T02440078
METAR KDRO 221453Z AUTO 00000KT 10SM CLR 23/08 A3040 RMK AO2 SLP190
       T02280078 53008
METAR KDRO 221353Z AUTO 06004KT 10SM CLR 19/08 A3039 RMK AO2 SLP186
       T01940083

METAR KPSO 221555Z AUTO 00000KT 10SM CLR 23/07 A3048 RMK AO2
       T02270065
METAR KPSO 221535Z AUTO 00000KT 10SM CLR 23/06 A3048 RMK AO2
       T02280064
METAR KPSO 221515Z AUTO 00000KT 10SM CLR 22/07 A3048 RMK AO2
       T02210066

METAR KCPW 221542Z AUTO 00000KT 10SM SCT110 12/05 A3084 RMK AO2
METAR KCPW 221524Z AUTO 00000KT 10SM BKN110 13/05 A3084 RMK AO2
METAR KCPW 221506Z AUTO 00000KT 10SM SCT110 13/05 A3084 RMK AO2

KALS 221125Z 2212/2312 VRB06KT P6SM SCT100 SCT200
     FM222000 13012KT P6SM VCTS SCT070CB BKN200
     FM230200 10008KT P6SM VCSH SCT060 BKN120
     FM230700 VRB06KT P6SM SCT120 SCT200
METAR KALS 221552Z AUTO 00000KT 10SM CLR 19/08 A3051 RMK AO2 SLP226
        T01940083 $
METAR KALS 221452Z AUTO VRB04KT 10SM CLR 17/09 A3051 RMK AO2 SLP233
       T01720089 51008 $
METAR KALS 221352Z AUTO 08003KT 10SM CLR 14/09 A3050 RMK AO2 SLP234
       T01440094 $

Sunrise/Sunset for 07/22/2019
Vail    - 05:55:59 MDT / 20:27:50 MDT
Durango - 06:08:08 MDT / 20:27:46 MDT
Alamosa - 05:59:42 MDT / 20:20:15 MDT

Grand Junction (KGJX) 07/22/19 15:54 UTC
Radar VAD winds      Height      Dir/Spd(kt)
                  18000 FT MSL...338/012
                  18000 FT MSL...330/013
                  17000 FT MSL...330/010
                  16300 FT MSL...346/008
                  16000 FT MSL...360/008
                  15000 FT MSL...014/009
                  14600 FT MSL...013/008
                  14000 FT MSL...009/007
                  13000 FT MSL...162/006
                  12900 FT MSL...163/006
                  12000 FT MSL...220/005
                  11100 FT MSL...237/011
                  11000 FT MSL...164/008
                  11000 FT MSL...223/010
                  10400 FT MSL...196/009

Grand Junction Aviation Discussion
Issued at 1134 UTC Monday, July 22, 2019

.AVIATION...(For the 12Z TAFS through 12Z Tuesday morning)
Issued at 532 AM MDT Mon Jul 22 2019
VFR conditions will be in place this morning with light to
moderate terrain driven winds. There will be a slight uptick in
mountain thunderstorm development today but limited coverage
keeps them out of the TAF forecasts attm. Gusty outflow winds will
be the threat with storms which could cause a quick change in wind
direction and speed.


* * * * * Arizona * * * * *

KPGA 221123Z 2212/2312 VRB06KT P6SM FEW150
METAR KPGA 221553Z AUTO 35003KT 10SM CLR 29/M01 A3015 RMK AO2 SLP132
       T02941011 TSNO
METAR KPGA 221453Z AUTO 00000KT 10SM CLR 28/M01 A3014 RMK AO2 SLP127
       T02831006 53013 TSNO
METAR KPGA 221353Z AUTO 00000KT 10SM CLR 27/02 A3012 RMK AO2 SLP120
       T02720022 TSNO

METAR KRQE 221553Z AUTO 17007KT 10SM CLR 26/08 A3037 RMK AO2 SLP148
       T02560083
METAR KRQE 221453Z AUTO 00000KT 10SM CLR 21/03 A3037 RMK AO2 SLP146
       T02110033 51014
METAR KRQE 221353Z AUTO 00000KT 10SM CLR 16/02 A3036 RMK AO2 SLP144
       T01560017

Flagstaff (KFSX) 07/22/19 16:01 UTC
Radar VAD winds      Height      Dir/Spd(kt)
                  12000 FT MSL...070/013
                  11900 FT MSL...058/014
                  11000 FT MSL...048/015
                  10800 FT MSL...033/014
                  10000 FT MSL...020/015
                  10000 FT MSL...013/014
                   9200 FT MSL...351/013
                   9000 FT MSL...353/012
                   8500 FT MSL...343/012
                   8100 FT MSL...305/008
                   8000 FT MSL...321/009
                   7800 FT MSL...293/008

Flagstaff Aviation Discussion
Issued at 1057 UTC Monday, July 22, 2019

.AVIATION...For the 12Z package...Expect VFR conditions across
northern Arizona for the next 24 hours. Isolated generally high-
based showers and thunderstorms developing after 19Z with more
numerous storms along and southeast of a KSOW-KRQE line. A
slight chance of showers and storms continues overnight
along/south of a KFLG-KRQE line. Wind gusts in excess of 35kt in the
vicinity of storms. Otherwise, winds less than 15 kts. Aviation
discussion not updated for TAF amendments.


* * * * * Utah * * * * *

KSLC 221450Z 2215/2318 15006KT P6SM FEW100
     FM221900 32008KT P6SM FEW150
     FM230400 16007KT P6SM SCT150
     FM231200 18011KT P6SM SCT100 BKN150
METAR KSLC 221554Z 19004KT 10SM FEW150 FEW220 SCT260 30/09 A3010 RMK AO2
       SLP129 T03000094
METAR KSLC 221454Z 15008KT 10SM FEW150 FEW220 29/09 A3010 RMK AO2 SLP126
       T02890089 51012
METAR KSLC 221354Z 15008KT 10SM FEW150 FEW220 27/08 A3009 RMK AO2 SLP120
       T02720083

KVEL 221124Z 2212/2312 27003KT P6SM SCT150
     FM222000 22007KT P6SM FEW150 FEW250
     FM222300 29006KT P6SM FEW150 FEW250
     FM230300 32004KT P6SM FEW150 FEW250
METAR KVEL 221553Z AUTO 07004KT 10SM CLR 29/07 A3023 RMK AO2 SLP156
       T02940067
METAR KVEL 221453Z AUTO 25004KT 10SM CLR 26/07 A3022 RMK AO2 SLP160
       T02610072 51010
METAR KVEL 221353Z AUTO 00000KT 10SM CLR 23/07 A3022 RMK AO2 SLP152
       T02330067

METAR KPUC 221553Z AUTO 12006KT 10SM CLR 29/M01 A3025 RMK AO2 SLP133
        T02891006
METAR KPUC 221453Z AUTO 10003KT 10SM CLR 26/03 A3024 RMK AO2 SLP122
       T02560028 53010
METAR KPUC 221353Z AUTO 07003KT 10SM CLR 23/03 A3023 RMK AO2 SLP115
       T02330028

KCNY 221124Z 2212/2312 15002KT P6SM SKC
     FM221700 18007KT P6SM SKC
     FM221900 23006KT P6SM FEW150 FEW250
     FM230400 13006KT P6SM FEW100 FEW250
METAR KCNY 221553Z AUTO 13011KT 10SM CLR 32/03 A3014 RMK AO2 SLP133
       T03220028
METAR KCNY 221453Z AUTO 10009KT 10SM CLR 30/01 A3013 RMK AO2 SLP130
       T03000011 51015
METAR KCNY 221353Z AUTO 10010KT 10SM CLR 27/01 A3013 RMK AO2 SLP127
       T02670006


Salt Lake City (KMTX) 07/22/19 15:59 UTC
Radar VAD winds      Height      Dir/Spd(kt)
                  15500 FT MSL...271/010
                  15000 FT MSL...126/011
                  14000 FT MSL...236/004
                  13600 FT MSL...203/005
                  13000 FT MSL...249/009
                  12100 FT MSL...258/010
                  12000 FT MSL...256/009
                  11000 FT MSL...239/008
                  10900 FT MSL...241/007
                  10000 FT MSL...207/009
                   9900 FT MSL...206/008
                   9000 FT MSL...214/008
                   9000 FT MSL...213/009
                   8300 FT MSL...213/008
                   8000 FT MSL...215/013
                   7600 FT MSL...201/008
                   7100 FT MSL...206/012
                   7000 FT MSL...194/012
                   6900 FT MSL...186/012

Salt Lake City Aviation Discussion
Issued at 1542 UTC Monday, July 22, 2019

.AVIATION...Southeast winds at the SLC terminal are
expected to become northwest between 19-20Z today. VFR conditions
will prevail through the period.


* * * * * Wyoming * * * * *

KEVW 221120Z 2212/2312 08008KT P6SM FEW120
     FM221900 24010KT P6SM SCT120
     FM230400 13006KT P6SM FEW120=
METAR KEVW 221553Z AUTO 05005KT 10SM CLR 21/10 A3038 RMK AO2 SLP186
       T02060100
METAR KEVW 221453Z AUTO 08009KT 10SM CLR 18/10 A3038 RMK AO2 SLP187
       T01830100 51007
METAR KEVW 221353Z AUTO 10009KT 10SM CLR 17/09 A3037 RMK AO2 SLP185
       T01670089

KRKS 221124Z 2212/2312 08011KT P6SM FEW120
     FM221800 VRB05KT P6SM SKC
     FM222100 26010G18KT P6SM SCT120
     FM230400 07010KT P6SM FEW120
METAR KRKS 221554Z AUTO 08010KT 10SM CLR 23/11 A3037 RMK AO2 SLP189
       T02280111
METAR KRKS 221454Z AUTO 07011KT 10SM CLR 20/12 A3037 RMK AO2 SLP190
       T02000117 51004
METAR KRKS 221354Z AUTO 07008KT 10SM CLR 17/12 A3037 RMK AO2 SLP190
        T01670117

KRWL 221125Z 2212/2312 07011KT P6SM FEW060
     FM221500 08008KT P6SM SCT040 BKN250
     FM222100 32008KT P6SM VCTS SCT050CB BKN250
     FM230200 07008KT P6SM BKN100
METAR KRWL 221553Z AUTO VRB06KT 10SM CLR 22/12 A3040 RMK AO2 LTG DSNT NW
       SLP192 T02170117
METAR KRWL 221453Z AUTO 06008KT 10SM CLR 19/12 A3040 RMK AO2 SLP194
       T01890122 50005
METAR KRWL 221353Z AUTO 09007KT 10SM SCT120 17/12 A3041 RMK AO2 SLP196
       T01670122

KLAR 221125Z 2212/2312 17012KT P6SM SCT040 BKN250
     FM222000 06012G20KT P6SM VCTS BKN050CB BKN100
     FM230300 15015G22KT P6SM BKN100
     FM231000 16006KT P6SM FEW150=
METAR KLAR 221553Z AUTO 16021KT 10SM CLR 19/12 A3043 RMK AO2 SLP200
       T01890117
METAR KLAR 221453Z AUTO 16017KT 10SM CLR 17/11 A3044 RMK AO2 SLP203
       T01720111 50003
METAR KLAR 221353Z AUTO 16018KT 10SM CLR 16/12 A3044 RMK AO2 SLP200
       T01610117

KCYS 221601Z 2216/2312 17009KT P6SM OVC004
     FM221730 16013KT P6SM OVC010
     FM221900 16009KT P6SM SCT030
     FM222000 15011KT P6SM VCTS BKN035CB
     FM230000 16012KT P6SM SCT060
METAR KCYS 221553Z 16014G17KT 9SM OVC004 16/15 A3042 RMK AO2 RAE12
       SLP233 P0000 T01610150
SPECI KCYS 221534Z 17012KT 6SM BR OVC002 16/14 A3042 RMK AO2 RAE12 P0000
       T01560144
SPECI KCYS 221525Z 17010KT 2SM BR OVC002 16/15 A3043 RMK AO2 SFC VIS 5
       RAE12 P0000 T01560150

Riverton (KRIW) 07/22/19 16:00 UTC
Radar VAD winds      Height      Dir/Spd(kt)
                  20000 FT MSL...309/017
                  19000 FT MSL...247/021
                  11200 FT MSL...249/008
                  11000 FT MSL...253/009
                  10000 FT MSL...221/010
                  10000 FT MSL...226/010
                   9000 FT MSL...156/015
                   8900 FT MSL...173/012
                   8100 FT MSL...244/005
                   8000 FT MSL...294/005
                   7300 FT MSL...318/007
                   7000 FT MSL...326/007
                   6700 FT MSL...300/007
                   6200 FT MSL...329/006
                   6000 FT MSL...329/004
                   6000 FT MSL...326/005

Cheyenne (KCYS) 07/22/19 15:56 UTC
Radar VAD winds      Height      Dir/Spd(kt)
                  18000 FT MSL...343/028
                  17000 FT MSL...347/027
                  16000 FT MSL...355/025
                  15000 FT MSL...358/021
                  14100 FT MSL...004/018
                  14000 FT MSL...006/017
                  13000 FT MSL...022/014
                  12400 FT MSL...031/011
                  12000 FT MSL...037/009
                  11000 FT MSL...219/021
                  10700 FT MSL...221/013
                  10000 FT MSL...199/012
                   9000 FT MSL...177/015
                   8900 FT MSL...186/014
                   8000 FT MSL...171/016
                   7200 FT MSL...172/014
                   7100 FT MSL...158/009

Riverton Aviation Discussion
Issued at 0726 UTC Monday, July 22, 2019

.AVIATION...For the 12Z TAFS through 12Z Tuesday
MVFR ceilings over Johnson and Natrona counties are expected to
lift/scatter out by mid-late morning. Cannot rule out some patchy
morning fog in these areas. Otherwise, VFR conditions are
expected. The other aviation concern will be afternoon and evening
high- based thunderstorms, mainly along and east of the Divide.
Will keep KCPR terminal dry for now, but convection could move in
between 00Z and 04Z Tuesday. Very brief IFR/MVFR conditions are
possible in convection. Wind will be relatively light today, but
breezy easterly winds are expected to develop this evening mainly
across Natrona and Sweetwater counties.

Cheyenne Aviation Discussion
Issued at 1133 UTC Monday, July 22, 2019

.AVIATION...(For the 12Z TAFS through 12Z Tuesday morning)
Issued at 533 AM MDT Mon Jul 22 2019
Latest satellite imagery tracking a wide swath of low ceilings and
fog from the Laramie Range eastward into the Panhandle. LIFR and
IFR conditions from KCYS to KAIA expected to remain with slow
improvement after 18z given general upslope flow and available
moisture advection. WY terminals especially KRWL and KLAR are
expected to see vicinity thunderstorms after noon through the
early evening around 03z, KCYS could get in on the action
depending on the dissipation of the stratus deck and remaining
daytime heating.


* * * * * Nebraska * * * * *

METAR KIBM 221555Z AUTO 15010KT 10SM OVC005 18/16 A3040 RMK AO2
       T01810162
METAR KIBM 221530Z AUTO 13010KT 7SM OVC003 18/17 A3040 RMK AO2
       T01780165
METAR KIBM 221515Z AUTO 15011KT 5SM BR OVC003 17/16 A3041 RMK AO2
       T01710162

KSNY 221125Z 2212/2312 07011KT 6SM BR OVC008
     FM221500 14010KT P6SM SCT005 BKN020
     FM221900 16010KT P6SM SCT020 BKN050
     FM230200 13010KT P6SM BKN050
METAR KSNY 221553Z AUTO 12011KT 10SM BKN011 OVC036 19/14 A3041 RMK AO2
       SLP259 T01890139
METAR KSNY 221453Z AUTO 16008KT 10SM OVC010 17/13 A3041 RMK AO2 SLP261
       T01720128 52008
SPECI KSNY 221438Z AUTO 16008KT 10SM FEW004 OVC009 17/13 A3041 RMK AO2
       T01670133

METAR KOGA 221555Z AUTO 10009KT 10SM CLR 20/14 A3038 RMK AO2
       T01990137
METAR KOGA 221530Z AUTO 09008KT 10SM SCT060 19/14 A3038 RMK AO2
       T01940136
METAR KOGA 221510Z AUTO 10008KT 10SM BKN060 18/13 A3039 RMK AO2
       T01840131

METAR KIML 221553Z AUTO 13007KT 10SM SCT041 SCT050 21/13 A3037 RMK AO2
       SLP263 T02060128
METAR KIML 221453Z AUTO 14009KT 10SM FEW024 OVC046 19/13 A3038 RMK AO2
       RAB16E25 SLP267 P0000 60000 T01940128 50012
SPECI KIML 221412Z AUTO 11006KT 10SM SCT027 OVC042 18/13 A3038 RMK AO2
       T01780133

KMCK 221120Z 2212/2312 05010KT P6SM SCT080
METAR KMCK 221553Z AUTO 07006KT 10SM CLR 22/14 A3036 RMK AO2 SLP261
       T02170139
METAR KMCK 221453Z AUTO 07008KT 10SM CLR 21/14 A3036 RMK AO2 SLP266
       T02060139 51013
METAR KMCK 221353Z AUTO 05007KT 10SM FEW085 19/14 A3036 RMK AO2 SLP263
       T01890139

North Platte (KLNX) 07/22/19 15:53 UTC
Radar VAD winds      Height      Dir/Spd(kt)
                  17000 FT MSL...343/033
                  16000 FT MSL...344/028
                  15000 FT MSL...332/030
                  14000 FT MSL...339/027
                  13000 FT MSL...328/025
                  12000 FT MSL...335/022
                  11000 FT MSL...344/018
                  11000 FT MSL...344/018
                  10000 FT MSL...334/013
                   9300 FT MSL...315/009
                   9000 FT MSL...299/006
                   8000 FT MSL...228/003
                   7600 FT MSL...186/003
                   7000 FT MSL...117/004
                   6000 FT MSL...103/006
                   5900 FT MSL...106/006
                   5000 FT MSL...119/005
                   4100 FT MSL...108/005
                   4000 FT MSL...130/006
                   4000 FT MSL...113/005
                   3400 FT MSL...124/006

North Platte Aviation Discussion
Issued at 1119 UTC Monday, July 22, 2019

.AVIATION...(For the 12Z TAFS through 12Z Tuesday morning)
Issued at 619 AM CDT Mon Jul 22 2019
Pockets of MVFR stratus remain across western Nebraska, though the
latest guidance show improvement later this morning. Otherwise
expect VFR for all terminals through the forecast period with
light winds as a ridge of high pressure builds to the west.


* * * * * Kansas * * * * *

KGLD 221523Z 2215/2312 07008KT P6SM OVC009
      TEMPO 2215/2218 BKN015
     FM221800 08009KT P6SM SCT045
METAR KGLD 221553Z AUTO 11008KT 10SM OVC010 19/16 A3038 RMK AO2 SLP255
       T01890156
SPECI KGLD 221542Z AUTO 11008KT 10SM OVC010 18/16 A3038 RMK AO2
       T01830156
METAR KGLD 221453Z AUTO 09008KT 10SM OVC009 17/16 A3038 RMK AO2 SLP255
       T01720156 51012

KGCK 221532Z 2216/2312 05007KT P6SM OVC020
     FM221700 04013KT P6SM SCT080
METAR KGCK 221554Z 03010G17KT 10SM OVC024 23/16 A3033 RMK AO2 SLP240
       T02280156
METAR KGCK 221454Z 05007KT 10SM OVC020 19/16 A3034 RMK AO2 SLP247
       T01940161 51016
SPECI KGCK 221407Z 02010KT 10SM OVC015 19/16 A3034 RMK AO2 T01890161

METAR KLBL 221556Z AUTO 04012KT 10SM FEW015 OVC023 22/16 A3033 RMK AO2
       SLP241 T02170161
METAR KLBL 221456Z AUTO 01009KT 10SM FEW009 OVC017 19/17 A3033 RMK AO2
       SLP244 T01940172 51006
SPECI KLBL 221453Z AUTO 01010KT 10SM FEW009 OVC015 19/17 A3033 RMK
       AO2

METAR KEHA 221555Z AUTO 04010KT 10SM SCT021 24/18 A3034 RMK AO2
       T02420184
METAR KEHA 221535Z AUTO 02008KT 10SM SCT021 24/19 A3035 RMK AO2
       T02410185
METAR KEHA 221515Z AUTO 36006KT 10SM BKN021 23/18 A3035 RMK AO2
       T02300182

Goodland (KGLD) 07/22/19 15:54 UTC
Radar VAD winds      Height      Dir/Spd(kt)
                  18000 FT MSL...348/025
                  17000 FT MSL...348/025
                  16000 FT MSL...348/021
                  15000 FT MSL...347/022
                  14900 FT MSL...347/022
                  14000 FT MSL...334/021
                  13000 FT MSL...311/021
                  12700 FT MSL...315/020
                  12000 FT MSL...323/017
                  11000 FT MSL...347/010
                  10800 FT MSL...351/009
                  10000 FT MSL...010/009
                   9300 FT MSL...023/010
                   9000 FT MSL...023/010
                   8100 FT MSL...033/011
                   8000 FT MSL...031/011
                   7000 FT MSL...028/009
                   7000 FT MSL...026/010
                   6200 FT MSL...027/006
                   6000 FT MSL...027/005
                   5400 FT MSL...077/005
                   5000 FT MSL...080/006
                   4700 FT MSL...089/006
                   4300 FT MSL...089/009
                   4000 FT MSL...077/010
                   4000 FT MSL...070/010

Dodge City (KDDC) 07/22/19 15:50 UTC
Radar VAD winds      Height      Dir/Spd(kt)
                  17000 FT MSL...357/025
                  16000 FT MSL...358/022
                  15000 FT MSL...338/017
                  14000 FT MSL...331/021
                  13900 FT MSL...332/021
                  13000 FT MSL...346/023
                  12000 FT MSL...359/020
                  11600 FT MSL...001/019
                  11000 FT MSL...002/019
                  10000 FT MSL...007/019
                   9700 FT MSL...009/020
                   9000 FT MSL...015/021
                   8100 FT MSL...015/022
                   8000 FT MSL...015/022
                   7000 FT MSL...018/018
                   7000 FT MSL...018/018
                   6000 FT MSL...024/019
                   5900 FT MSL...022/017
                   5100 FT MSL...029/015
                   5000 FT MSL...029/015
                   4300 FT MSL...024/014
                   4000 FT MSL...022/015
                   3700 FT MSL...021/013
                   3200 FT MSL...023/016
                   3000 FT MSL...021/015
                   3000 FT MSL...021/015

Goodland Aviation Discussion
Issued at 1434 UTC Monday, July 22, 2019

.AVIATION...(For the 12Z TAFS through 12Z Tuesday morning)
Issued at 215 AM MDT Mon Jul 22 2019
Aside from a potential for MVFR ceilings at the GLD terminal
prior to sunrise (~12Z) this morning, VFR conditions will rule
through the TAF period at both terminals. Light (7-12 knot) ENE
winds will gradually veer to the ESE-SE late this afternoon into
tonight.

Dodge City Aviation Discussion
Issued at 1000 UTC Monday, July 22, 2019

.AVIATION...(For the 12Z TAFS through 12Z Tuesday morning)
Issued at 555 AM CDT Mon Jul 22 2019
MVFR cigs will start this morning as low level upslope stratus moves
across the terminals. Improvement back to VFR is expected by mid morning.
Otherwise, winds today will be N/NE 5-15 kt.


* * * * * Texas/Oklahoma * * * * *

KGUY 221412Z 2214/2312 01008KT P6SM BKN150
     FM221700 04012KT P6SM SCT200
     FM222300 07009KT P6SM FEW250
     FM230600 10006KT P6SM SCT250=
METAR KGUY 221553Z AUTO 02015G20KT 10SM SCT017 23/16 A3031 RMK AO2
       SLP219 T02280161
SPECI KGUY 221528Z AUTO 02014KT 10SM BKN017 21/16 A3032 RMK AO2
       T02110161
METAR KGUY 221453Z AUTO 03014KT 10SM CLR 22/16 A3030 RMK AO2 SLP216
       T02220161 58001

KDHT 221133Z 2212/2312 02013G21KT P6SM VCTS OVC030CB
     FM221300 03013KT P6SM VCSH OVC045
     FM221800 05012KT P6SM BKN200
     FM222300 08010KT P6SM SCT200=
METAR KDHT 221553Z AUTO 04017KT 10SM FEW110 24/16 A3032 RMK AO2 SLP207
       T02390156
METAR KDHT 221453Z AUTO 03014KT 10SM CLR 20/17 A3033 RMK AO2 RAE01
       SLP213 P0000 60018 T02000172 58007

Amarillo (KAMA) 07/22/19 16:00 UTC
Radar VAD winds      Height      Dir/Spd(kt)
                  30000 FT MSL...053/029
                  28000 FT MSL...053/013
                  14000 FT MSL...336/006
                  13000 FT MSL...307/009
                  12600 FT MSL...313/010
                  12000 FT MSL...319/012
                  11000 FT MSL...352/013
                  10800 FT MSL...354/014
                  10000 FT MSL...011/018
                   9200 FT MSL...012/021
                   9000 FT MSL...012/021
                   8000 FT MSL...017/023
                   8000 FT MSL...016/024
                   7000 FT MSL...027/026
                   7000 FT MSL...027/026
                   6200 FT MSL...036/023
                   6000 FT MSL...038/023
                   5400 FT MSL...036/020
                   5000 FT MSL...027/019
                   4700 FT MSL...028/019
                   4300 FT MSL...024/020
                   4000 FT MSL...025/020
                   4000 FT MSL...026/019

Amarillo Aviation Discussion
Issued at 1139 UTC Monday, July 22, 2019

.AVIATION...
12Z TAF Issuance...Showers and thunderstorms continue to linger
this morning for KDHT, but should clear out by the early
afternoon. Low ceilings are possible at all three TAF sites due to
low clouds from the lingering rain showers. Sky conditions will
begin to lift through the afternoon hours as the rain showers
diminishes. Winds are out of the north at about 10-15 knots with
gusts up to 25 knots but will slowly turn east and southeast this
afternoon and evening and diminish to 5 to 10 knots.
Rutt


* * * * * New Mexico * * * * *

KFMN 221145Z 2212/2312 10011KT P6SM FEW150
     FM221800 14010KT P6SM FEW100
     FM230000 09018G28KT P6SM VCTS BKN110CB
     FM230200 11015G25KT P6SM BKN110
     FM230800 10008KT P6SM SCT120
METAR KFMN 221553Z 13010KT 10SM CLR 28/07 A3029 RMK AO2 SLP179
       T02780072
METAR KFMN 221453Z 09009KT 10SM CLR 26/08 A3029 RMK AO2 SLP181 T02560078
       51012
METAR KFMN 221353Z 09008KT 10SM CLR 24/08 A3028 RMK AO2 SLP175 T02440078


KLVS 221407Z 2214/2312 03013KT P6SM SCT025
     FM221700 07011KT P6SM BKN035
     FM222200 11010KT P6SM VCSH BKN040
     FM230700 07007KT P6SM BKN035
METAR KLVS 221553Z AUTO 05007G18KT 10SM CLR 20/12 A3050 RMK AO2 SLP229
       T02000117
METAR KLVS 221453Z AUTO 06015KT 10SM CLR 19/12 A3048 RMK AO2 SLP219
       T01940117 53003
METAR KLVS 221353Z AUTO 01016G20KT 10SM CLR 17/12 A3047 RMK AO2 SLP216
       T01720117

METAR KRTN 221553Z AUTO VRB03KT 10SM CLR 21/11 A3046 RMK AO2 SLP229
       T02110111
METAR KRTN 221453Z AUTO VRB04KT 10SM CLR 19/12 A3046 RMK AO2 SLP229
       T01940117 50000
METAR KRTN 221353Z AUTO 04005KT 10SM BKN050 18/11 A3047 RMK AO2 SLP230
       T01830111

METAR KCAO 221555Z AUTO 36014KT 10SM OVC095 18/16 A3037 RMK AO2 SLP225
       T01780156
SPECI KCAO 221521Z AUTO 01011KT 10SM FEW007 BKN095 BKN110 18/16 A3039
       RMK AO2 T01780156
METAR KCAO 221455Z AUTO 36011KT 10SM OVC006 17/16 A3040 RMK AO2 RAB16E54
       CIG 005V011 SLP237 P0000 60000 T01720156 50004

Albuquerque (KABX) 07/22/19 15:48 UTC
Radar VAD winds      Height      Dir/Spd(kt)
                  17000 FT MSL...034/011
                  16000 FT MSL...358/020
                  15000 FT MSL...342/014
                  14000 FT MSL...316/013
                  13800 FT MSL...315/013
                  13000 FT MSL...082/007
                  12000 FT MSL...159/021
                  11000 FT MSL...135/013
                  10400 FT MSL...128/011
                  10000 FT MSL...124/016
                   9000 FT MSL...131/016
                   8700 FT MSL...115/010
                   8000 FT MSL...131/015
                   7000 FT MSL...106/011
                   7000 FT MSL...102/011
                   6900 FT MSL...119/011
                   6300 FT MSL...128/011

Albuquerque Aviation Discussion
Issued at 1154 UTC Monday, July 22, 2019

.AVIATION...
12Z TAF CYCLE
Remnant showers low clouds in portions of eastern New Mexico could
linger into the early afternoon with some MVFR ceilings possibly
being stubborn to erode away. Additional rounds of thunderstorms will
redevelop in the afternoon, primarily over the Continental Divide of
western New Mexico and the northern mountains. A late round of
storms is also possible in southeastern parts of the state towards
KROW late afternoon and evening. Storms will have more moisture to
work with, leading to heavier downpours and reduced
ceilings/visibilities during rain. Gusty downburst winds, small hail,
and lightning will also be possible. Showers and thunderstorms will
likely persist into early Tuesday morning with MVFR/IFR ceilings and
patchy fog possible toward dawn.
52

* * * * * Winds and Temperatures Aloft Forecasts * * * * *

DATA BASED ON 221200Z
VALID 221800Z   FOR USE 1700-2100Z. TEMPS NEG ABV 24000
FT  3000    6000   9000    12000   18000   24000  30000  34000  39000
SLC      9900    2405+20 2105+12 2416-07 2815-21 232933 234043 234753
BCE                      9900+12 9900-06 1908-19 202333 213342 233754
LND              1808+17 2311+12 2711-09 2606-21 261734 263244 273552
RKS              1606    2109+13 2515-08 2513-22 262832 264043 264053
GJT              2005+21 9900+13 2205-08 2508-19 242032 252342 253153
FMN              1513+19 1407+11 3310-07 9900-16 231932 222342 251353
ABQ              1113+14 0505+09 3612-06 0708-16 120931 170742 180654
MBW              1411    9900+11 3120-09 2910-20 283034 284243 284453
DEN              1608+15 9900+10 3222-07 2713-20 293033 283742 284253
PUB              1909+12 9900+08 3519-07 2709-18 292732 283042 282753
ALS                      9900+09 3514-07 2607-17 271532 252342 272454
TCC      0517    0717+12 1010+07 2010-06 9900-16 120831 360641 300954
BFF      1413    2009+11 3310+08 3125-08 3122-20 303436 295043 305452
GLD      0707    3507+10 3117+06 3317-06 3220-19 304233 294842 295053
GCK      0510+14 0215+10 3324+06 3519-06 3218-18 313332 314242 293652
GAG      0419+14 0218+11 3421+07 3512-06 3417-17 332631 322642 302153
AMA      0419    0413+12 3609+07 3407-07 0211-17 351731 331242 990054
---------------------------------------------------------------------

DATA BASED ON 221200Z
VALID 230000Z   FOR USE 2100-0600Z. TEMPS NEG ABV 24000
FT  3000    6000   9000    12000   18000   24000  30000  34000  39000
SLC      9900    9900+22 2309+14 2411-06 2609-20 243234 244443 243652
BCE                      2508+15 9900-07 2008-18 222533 243842 243754
LND              9900+19 2606+12 2813-07 2705-19 262433 263744 263753
RKS              2506    2605+14 2908-07 2814-18 262833 263743 274454
GJT              9900+22 9900+14 9900-06 2510-18 242332 252342 272753
FMN              1910+21 1909+13 3506-06 9900-15 220932 261641 301454
ABQ              1216+16 0407+09 0214-06 0107-14 990031 990042 990054
MBW              1416    1313+11 3017-07 2911-19 283933 284843 295054
DEN              1810+17 1708+09 3520-08 3029-18 284332 274542 294854
PUB              1412+14 3406+09 0218-07 2913-18 303431 304041 304054
ALS                      2306+10 0413-06 2911-16 282631 302541 312954
TCC      0908    0910+12 1406+07 0605-06 9900-15 250931 301242 331154
BFF      1416    2107+12 3313+09 3224-07 3324-19 304234 305343 305252
GLD      1111    9900+10 3418+08 3321-06 3125-19 304933 305642 315753
GCK      0809+17 0210+09 3421+07 3215-06 3125-18 304132 304642 314253
GAG      0513+17 0317+10 3527+07 3617-05 3222-16 313131 303642 312653
AMA      0613    0510+12 3411+08 0212-05 3311-15 341531 311742 331453
---------------------------------------------------------------------

DATA BASED ON 221200Z
VALID 231200Z   FOR USE 0600-1700Z. TEMPS NEG ABV 24000
FT  3000    6000   9000    12000   18000   24000  30000  34000  39000
SLC      1808    2011+21 2111+13 2012-07 2418-19 253533 254543 243853
BCE                      9900+13 1505-07 1605-18 222432 222643 232054
LND              1806+17 9900+11 3214-07 3013-19 273035 284444 274553
RKS              2105    9900+12 3013-07 3011-19 273134 284843 273854
GJT              2313+16 2105+12 0107-07 3609-17 282632 273143 263155
FMN              1308+14 9900+09 0619-06 9900-16 271332 251342 301055
ABQ              1316+12 1409+06 0410-05 0608-15 990031 990042 360555
MBW              9900    9900+11 3116-08 3215-19 313834 294044 294254
DEN              1806+18 2007+11 3318-08 3316-20 312833 303843 304053
PUB              2206+14 9900+10 3517-06 3516-17 313132 304042 303754
ALS                      9900+09 0212-06 3409-17 292332 312742 302755
TCC      1512    3607+11 3611+06 3005-05 3313-15 331631 331942 311255
BFF      1931    9900+14 2807+08 3314-07 3113-19 322735 314744 304953
GLD      1813    2909+11 3515+06 3415-06 3422-19 334133 325044 324253
GCK      3510+16 3619+08 0123+07 3518-06 3421-19 333932 314643 314754
GAG      0121+14 0125+09 0122+08 3420-06 3325-17 324232 324643 314054
AMA      0807    0220+10 0119+07 3210-06 3418-16 332132 333342 332555
---------------------------------------------------------------------

This product is updated automatically at approximately 10, 30 and 50
minutes after each hour, 24 hours per day, 7 days per week.  It may
become unavailable at times due to system outages without prior notice.
Users are advised to check the time at the top of the product to ensure
that it is current.  Furthermore, content and format of the product are
subject to change without prior notice.

Comments and suggestions are welcome and should be directed to one of
the addresses or phone numbers shown at the bottom of this page.  In
order to expedite a response to comments or suggestions, be sure to
mention your interest in the hot-air balloon forecast.



USA.gov is the U.S. government's official web portal to all federal, state and local government web resources and services.